Time;durP1;ratioP1;P1;durP2;ratioP2;P2;SDS_P1;SDS_P2;PMS_P1;PMS_P2;Temp;Humidity;BMP_temperature;BMP_pressure;BME280_temperature;BME280_humidity;BME280_pressure;Samples;Min_cycle;Max_cycle;Signal;HPM_P1;HPM_P2
2022/01/30 00:00:44;;;;;;;2.30;0.20;;;;;;;6.19;69.58;97492.28;9895693;29;20049;-76
2022/01/30 00:06:06;;;;;;;0.88;0.30;;;;;;;6.05;69.94;97515.31;9943620;29;20142;-75
2022/01/30 00:11:32;;;;;;;2.47;0.50;;;;;;;6.13;69.18;97499.34;9919819;29;20058;-75
2022/01/30 00:17:02;;;;;;;1.60;0.32;;;;;;;6.11;69.26;97507.50;9908364;29;20078;-75
2022/01/30 00:22:40;;;;;;;2.08;0.43;;;;;;;6.17;68.70;97500.41;9921507;29;20046;-76
2022/01/30 00:28:06;;;;;;;1.83;0.50;;;;;;;6.21;67.18;97509.06;9910910;29;20053;-75
2022/01/30 00:33:30;;;;;;;3.58;0.60;;;;;;;6.23;65.97;97528.63;9919532;29;20059;-75
2022/01/30 00:38:51;;;;;;;4.97;0.63;;;;;;;6.31;65.12;97528.53;9906395;29;20486;-76
2022/01/30 00:44:12;;;;;;;3.20;0.50;;;;;;;6.24;64.40;97527.31;9906271;29;20493;-75
2022/01/30 00:49:34;;;;;;;3.45;0.63;;;;;;;6.30;61.89;97510.44;9931176;29;20050;-75
2022/01/30 00:54:54;;;;;;;5.22;0.65;;;;;;;6.38;61.98;97519.41;9918153;29;20393;-75
2022/01/30 01:00:17;;;;;;;4.40;0.80;;;;;;;6.48;61.23;97542.41;9904225;29;20117;-75
2022/01/30 01:05:39;;;;;;;3.17;0.50;;;;;;;6.54;58.43;97537.31;9916294;29;20062;-76
2022/01/30 01:11:25;;;;;;;3.63;0.65;;;;;;;6.64;56.52;97517.25;9916807;29;20046;-75
2022/01/30 01:28:00;;;;;;;4.95;0.38;;;;;;;6.41;57.11;97523.81;9922139;29;20070;-75
2022/01/30 01:33:22;;;;;;;4.38;0.40;;;;;;;6.27;54.93;97536.50;9917575;29;20059;-75
2022/01/30 01:38:43;;;;;;;2.90;0.30;;;;;;;6.26;55.39;97535.06;9905001;29;20046;-75
2022/01/30 01:44:13;;;;;;;3.63;0.52;;;;;;;6.16;56.17;97512.78;9904789;29;20048;-75
2022/01/30 01:49:35;;;;;;;3.20;0.50;;;;;;;5.98;56.72;97498.22;9929686;29;20127;-75
2022/01/30 01:54:58;;;;;;;2.33;0.50;;;;;;;5.91;57.16;97501.81;9917719;29;20067;-75
2022/01/30 02:00:20;;;;;;;3.42;0.57;;;;;;;5.81;57.42;97445.56;9904649;29;20050;-75
2022/01/30 02:05:42;;;;;;;3.88;0.52;;;;;;;5.68;57.93;97452.13;9921749;29;20063;-75
2022/01/30 02:11:07;;;;;;;3.17;0.30;;;;;;;5.56;58.74;97445.59;9911662;29;20051;-75
2022/01/30 02:28:13;;;;;;;5.22;0.40;;;;;;;5.26;59.67;97440.34;9925715;29;20055;-75
2022/01/30 02:33:35;;;;;;;2.50;0.35;;;;;;;5.26;58.99;97452.16;9926916;29;20207;-75
2022/01/30 02:39:00;;;;;;;4.00;0.32;;;;;;;5.48;58.18;97444.94;9923112;29;20121;-75
2022/01/30 02:44:31;;;;;;;2.85;0.40;;;;;;;5.85;58.31;97472.84;9923580;29;20398;-75
2022/01/30 02:55:27;;;;;;;2.33;0.30;;;;;;;5.78;58.99;97493.03;9925857;29;20054;-75
2022/01/30 03:00:50;;;;;;;1.95;0.30;;;;;;;5.49;59.01;97504.53;9922480;29;20130;-75
2022/01/30 03:06:12;;;;;;;4.03;0.40;;;;;;;5.32;59.15;97510.78;9934365;29;20131;-75
2022/01/30 03:11:33;;;;;;;2.40;0.30;;;;;;;5.25;59.09;97489.44;9909539;29;20046;-75
2022/01/30 03:16:55;;;;;;;4.32;0.43;;;;;;;5.12;59.56;97503.56;9908319;29;20111;-75
2022/01/30 03:22:17;;;;;;;3.13;0.52;;;;;;;5.09;59.70;97496.34;9909009;29;20087;-75
2022/01/30 03:27:40;;;;;;;6.13;0.40;;;;;;;5.24;59.28;97514.91;9933809;29;20054;-75
2022/01/30 03:33:01;;;;;;;3.73;0.83;;;;;;;5.21;58.83;97505.72;9908446;29;20477;-75
2022/01/30 03:38:26;;;;;;;7.47;0.90;;;;;;;5.27;58.93;97506.19;9934314;29;20210;-75
2022/01/30 03:43:47;;;;;;;2.50;0.50;;;;;;;5.13;58.92;97516.09;9908120;29;20042;-75
2022/01/30 03:49:09;;;;;;;3.47;0.50;;;;;;;5.10;59.19;97537.28;9933175;29;20078;-75
2022/01/30 03:54:39;;;;;;;3.63;0.60;;;;;;;5.02;59.34;97530.34;9935092;29;20149;-75
2022/01/30 04:00:00;;;;;;;2.47;0.50;;;;;;;4.95;59.82;97509.75;9906630;29;20053;-75
2022/01/30 04:05:21;;;;;;;2.88;0.57;;;;;;;4.89;60.26;97521.00;9900290;29;20071;-76
2022/01/30 04:10:43;;;;;;;3.95;0.47;;;;;;;5.02;60.27;97535.88;9866687;29;20043;-75
2022/01/30 04:16:14;;;;;;;3.95;0.60;;;;;;;5.21;59.98;97527.09;9882520;29;20460;-75
2022/01/30 04:21:54;;;;;;;3.22;0.82;;;;;;;5.26;60.29;97513.03;9890464;29;20043;-75
2022/01/30 04:27:37;;;;;;;5.40;0.40;;;;;;;5.08;60.21;97514.25;9897939;29;20047;-75
2022/01/30 04:33:19;;;;;;;1.88;0.43;;;;;;;4.98;60.03;97510.63;9902158;29;20498;-75
2022/01/30 05:08:39;;;;;;;4.97;0.60;;;;;;;5.01;55.17;97481.84;9913767;29;20055;-75
2022/01/30 05:14:22;;;;;;;8.10;0.77;;;;;;;4.95;54.01;97484.13;9911420;29;20051;-75
2022/01/30 05:20:12;;;;;;;4.10;0.60;;;;;;;4.95;53.75;97456.44;9873123;29;20539;-75
2022/01/30 05:25:56;;;;;;;9.60;1.03;;;;;;;5.05;52.87;97496.03;9913240;29;20073;-75
2022/01/30 05:31:18;;;;;;;6.97;0.60;;;;;;;5.15;52.03;97486.53;9906695;29;20057;-75
2022/01/30 05:37:08;;;;;;;5.15;0.63;;;;;;;5.21;50.86;97508.47;9885854;29;20074;-75
2022/01/30 05:42:50;;;;;;;3.95;0.82;;;;;;;5.25;52.21;97528.16;9931823;29;20504;-75
2022/01/30 05:48:37;;;;;;;3.75;0.70;;;;;;;5.31;51.86;97548.06;9924287;29;20490;-75
2022/01/30 05:54:18;;;;;;;6.30;0.70;;;;;;;5.32;50.89;97524.63;9931853;29;20091;-75
2022/01/30 05:59:39;;;;;;;6.03;0.95;;;;;;;5.28;50.95;97548.44;9913716;29;20070;-75
2022/01/30 06:05:21;;;;;;;4.88;0.60;;;;;;;5.27;50.87;97544.94;9930616;29;20062;-75
2022/01/30 06:10:43;;;;;;;6.97;0.50;;;;;;;5.25;50.34;97571.72;9914240;29;20043;-75
2022/01/30 06:16:04;;;;;;;2.58;0.55;;;;;;;5.25;50.17;97555.84;9913848;29;20047;-75
2022/01/30 06:21:26;;;;;;;4.40;0.68;;;;;;;5.28;50.19;97554.72;9913483;29;20051;-75
2022/01/30 06:27:14;;;;;;;4.78;1.38;;;;;;;5.34;50.19;97558.00;9927934;29;20472;-75
2022/01/30 06:33:01;;;;;;;6.45;0.82;;;;;;;5.37;50.55;97575.50;9918721;29;20520;-75
2022/01/30 06:38:45;;;;;;;4.32;0.70;;;;;;;5.37;50.41;97590.06;9899112;29;20047;-75
2022/01/30 06:44:25;;;;;;;4.38;0.60;;;;;;;5.38;50.41;97597.09;9905264;29;20050;-75
2022/01/30 06:50:10;;;;;;;4.05;0.77;;;;;;;5.36;50.38;97607.25;9889982;29;20055;-76
2022/01/30 06:55:50;;;;;;;4.63;0.68;;;;;;;5.36;50.69;97583.06;9906682;29;20459;-76
2022/01/30 07:01:34;;;;;;;5.50;0.77;;;;;;;5.38;50.44;97610.19;9907851;29;20376;-75
2022/01/30 07:07:19;;;;;;;5.15;0.70;;;;;;;5.41;50.45;97607.03;9887392;30;20144;-76
2022/01/30 07:12:40;;;;;;;6.03;0.52;;;;;;;5.47;50.28;97609.59;9889741;30;20047;-75
2022/01/30 07:18:02;;;;;;;5.82;0.90;;;;;;;5.48;50.11;97622.13;9902379;29;20042;-75
2022/01/30 07:23:24;;;;;;;3.97;0.57;;;;;;;5.50;49.98;97624.31;9897646;30;21063;-75
2022/01/30 07:28:49;;;;;;;6.20;0.70;;;;;;;5.53;50.14;97621.19;9916756;29;20039;-75
2022/01/30 07:34:10;;;;;;;5.95;0.88;;;;;;;5.57;50.39;97613.19;9883619;30;20053;-75
2022/01/30 07:39:32;;;;;;;6.20;0.80;;;;;;;5.60;49.82;97612.09;9900815;29;20177;-75
2022/01/30 07:44:53;;;;;;;5.72;0.80;;;;;;;5.65;49.38;97613.16;9884152;29;20114;-75
2022/01/30 07:50:15;;;;;;;5.88;0.50;;;;;;;5.68;49.60;97618.28;9898381;29;20044;-75
2022/01/30 07:55:36;;;;;;;4.03;0.80;;;;;;;5.81;49.46;97617.28;9871046;30;20047;-75
2022/01/30 08:00:57;;;;;;;5.60;0.65;;;;;;;5.89;48.72;97606.88;9882791;29;20055;-75
2022/01/30 08:06:19;;;;;;;6.13;0.63;;;;;;;5.91;48.24;97603.56;9894905;30;20528;-75
2022/01/30 08:11:40;;;;;;;5.03;0.47;;;;;;;5.97;48.00;97607.56;9870534;30;20132;-75
2022/01/30 08:17:02;;;;;;;5.00;0.50;;;;;;;6.01;48.37;97621.03;9908357;30;20047;-75
2022/01/30 08:22:23;;;;;;;6.80;0.70;;;;;;;6.02;47.42;97647.44;9870182;30;20130;-75
2022/01/30 08:27:44;;;;;;;5.47;0.85;;;;;;;6.02;47.69;97628.03;9870149;30;20133;-75
2022/01/30 08:33:05;;;;;;;4.15;0.50;;;;;;;6.26;47.56;97638.34;9869785;30;20135;-75
2022/01/30 08:38:27;;;;;;;3.67;0.60;;;;;;;6.33;47.30;97639.59;9882216;30;20071;-76
2022/01/30 08:43:53;;;;;;;5.95;0.70;;;;;;;6.52;47.10;97667.50;9871096;30;20182;-75
2022/01/30 08:49:14;;;;;;;5.22;0.60;;;;;;;6.63;46.32;97663.50;9869239;30;20047;-75
2022/01/30 08:54:35;;;;;;;5.07;0.90;;;;;;;6.71;45.65;97672.50;9893690;30;20054;-75
2022/01/30 08:59:58;;;;;;;3.80;0.68;;;;;;;7.02;46.12;97689.53;9881693;30;20436;-75
2022/01/30 09:05:21;;;;;;;5.00;0.80;;;;;;;7.04;45.46;97673.03;9918842;29;20055;-76
2022/01/30 09:10:42;;;;;;;6.13;0.70;;;;;;;6.82;45.32;97685.13;9917044;29;20459;-77
2022/01/30 09:16:10;;;;;;;3.90;0.40;;;;;;;6.75;45.04;97699.81;9919522;29;20055;-76
2022/01/30 09:21:31;;;;;;;5.93;0.80;;;;;;;6.67;45.35;97710.28;9931417;29;20051;-77
2022/01/30 09:26:53;;;;;;;5.05;0.73;;;;;;;6.60;45.28;97717.34;9907282;29;20047;-77
2022/01/30 09:32:14;;;;;;;7.72;1.23;;;;;;;6.59;45.34;97738.06;9904451;29;20138;-76
2022/01/30 09:37:35;;;;;;;8.57;1.20;;;;;;;6.61;44.71;97743.78;9919331;29;20536;-77
2022/01/30 09:42:56;;;;;;;10.20;1.10;;;;;;;6.85;44.79;97701.41;9919301;29;20478;-77
2022/01/30 09:48:18;;;;;;;7.45;1.35;;;;;;;7.26;44.11;97729.63;9919241;29;20072;-77
2022/01/30 09:53:39;;;;;;;7.82;1.45;;;;;;;7.96;43.16;97728.16;9932086;29;20055;-78
2022/01/30 09:59:04;;;;;;;7.47;1.30;;;;;;;8.14;42.18;97697.50;9932111;29;20047;-79
2022/01/30 10:04:27;;;;;;;7.28;1.27;;;;;;;10.41;41.94;97646.09;9907459;29;20123;-78
2022/01/30 10:09:50;;;;;;;6.03;1.00;;;;;;;17.45;31.22;97658.03;9933436;29;20059;-79
2022/01/30 10:15:16;;;;;;;5.07;1.25;;;;;;;21.93;25.35;97677.44;9933375;29;20047;-78
2022/01/30 10:20:38;;;;;;;4.35;0.93;;;;;;;21.11;24.94;97733.66;9933401;29;20046;-77
2022/01/30 10:26:01;;;;;;;4.25;0.88;;;;;;;19.75;26.23;97753.13;9922138;29;20084;-75
2022/01/30 10:31:34;;;;;;;6.00;1.48;;;;;;;19.05;24.51;97755.78;9937379;29;20047;-75
2022/01/30 10:37:23;;;;;;;9.43;1.70;;;;;;;21.86;22.11;97740.50;9913617;29;20104;-80
2022/01/30 10:42:48;;;;;;;7.50;2.22;;;;;;;21.59;20.01;97770.38;9869660;29;20054;-76
2022/01/30 10:48:17;;;;;;;6.45;1.65;;;;;;;23.43;20.88;97775.72;9924289;29;20057;-74
2022/01/30 10:53:41;;;;;;;8.17;1.77;;;;;;;21.17;19.46;97767.91;9938015;29;20051;-75
2022/01/30 10:59:10;;;;;;;8.80;1.90;;;;;;;16.46;22.14;97784.25;9911749;29;20050;-77
2022/01/30 11:04:31;;;;;;;7.95;1.48;;;;;;;14.14;24.12;97769.94;9924554;29;20059;-78
2022/01/30 11:16:54;;;;;;;10.05;2.10;;;;;;;10.76;27.99;97796.34;9930561;29;20472;-77
2022/01/30 11:21:31;;;;;;;12.48;1.80;;;;;;;10.19;29.14;97811.97;9927163;29;20058;-77
2022/01/30 11:26:51;;;;;;;8.75;1.48;;;;;;;9.70;29.85;97803.69;9923859;29;20540;-77
2022/01/30 11:32:12;;;;;;;6.47;1.30;;;;;;;9.21;31.28;97824.47;9936227;29;20043;-79
2022/01/30 11:37:36;;;;;;;10.07;1.63;;;;;;;8.77;32.56;97822.63;9920766;29;20039;-81
2022/01/30 11:42:57;;;;;;;10.15;1.85;;;;;;;8.33;33.16;97845.69;9880489;29;20129;-78
2022/01/30 11:48:19;;;;;;;8.27;1.90;;;;;;;8.17;33.53;97843.69;9921534;29;20046;-78
2022/01/30 11:53:41;;;;;;;9.70;1.85;;;;;;;8.02;34.08;97866.88;9909673;29;20062;-78
2022/01/30 11:59:05;;;;;;;11.43;2.50;;;;;;;7.94;34.69;97866.25;9920641;29;20137;-76
2022/01/30 12:04:30;;;;;;;8.50;1.92;;;;;;;7.75;34.73;97847.38;9922532;29;20411;-76
2022/01/30 12:09:51;;;;;;;13.18;2.10;;;;;;;7.63;35.64;97855.47;9959601;29;20059;-76
2022/01/30 12:15:21;;;;;;;8.55;2.00;;;;;;;7.39;35.76;97870.91;9908986;29;20513;-76
2022/01/30 12:21:11;;;;;;;10.98;2.13;;;;;;;7.40;36.65;97866.09;9911076;29;20071;-76
2022/01/30 12:26:49;;;;;;;11.02;1.92;;;;;;;7.37;37.05;97867.97;9887931;30;20057;-76
2022/01/30 12:32:22;;;;;;;10.15;2.90;;;;;;;7.31;36.83;97863.94;9886684;30;20095;-77
2022/01/30 12:37:44;;;;;;;12.20;2.72;;;;;;;7.35;37.08;97876.13;9897863;30;20137;-78
2022/01/30 12:43:05;;;;;;;10.88;2.00;;;;;;;7.37;37.38;97872.78;9903345;29;20046;-76
2022/01/30 12:48:25;;;;;;;10.38;1.67;;;;;;;7.61;37.17;97877.53;9907813;29;20043;-78
2022/01/30 12:53:46;;;;;;;12.52;1.95;;;;;;;7.70;37.07;97871.31;9929336;29;20074;-78
2022/01/30 12:59:07;;;;;;;10.50;1.88;;;;;;;7.67;37.15;97877.28;9858145;30;20048;-78
2022/01/30 13:04:28;;;;;;;13.23;2.03;;;;;;;7.82;37.32;97887.50;9902709;29;20408;-80
2022/01/30 13:10:01;;;;;;;14.73;2.35;;;;;;;8.01;36.80;97882.09;9951771;29;20050;-79
2022/01/30 13:15:23;;;;;;;11.68;2.08;;;;;;;8.16;36.90;97870.78;9941248;29;20086;-82
2022/01/30 13:20:46;;;;;;;15.40;2.92;;;;;;;8.30;36.68;97877.47;9939228;29;20513;-80
2022/01/30 13:26:08;;;;;;;11.90;2.55;;;;;;;8.29;36.75;97894.69;9949271;29;20047;-82
2022/01/30 13:31:31;;;;;;;10.57;2.58;;;;;;;8.09;36.36;97891.06;9942783;29;20035;-81
2022/01/30 13:37:10;;;;;;;16.10;2.42;;;;;;;7.96;36.99;97902.53;9969395;29;20058;-80
2022/01/30 13:48:21;;;;;;;17.30;2.88;;;;;;;7.61;37.23;97908.09;9991001;29;20037;-81
2022/01/30 13:53:42;;;;;;;13.80;3.05;;;;;;;7.57;37.47;97932.75;9977148;29;20023;-81
2022/01/30 13:59:03;;;;;;;17.77;2.28;;;;;;;7.62;37.36;97923.44;9954876;29;20050;-79
2022/01/30 14:04:24;;;;;;;15.73;2.60;;;;;;;7.60;37.32;97914.94;9955770;29;20058;-80
2022/01/30 14:09:49;;;;;;;11.70;2.08;;;;;;;7.62;37.33;97923.44;9956570;29;20022;-81
2022/01/30 14:15:12;;;;;;;11.43;2.65;;;;;;;7.69;37.16;97916.34;9905860;29;20051;-76
2022/01/30 14:20:33;;;;;;;16.73;2.97;;;;;;;7.82;36.99;97918.09;9882390;29;20067;-76
2022/01/30 14:26:13;;;;;;;15.70;2.45;;;;;;;7.89;37.14;97898.53;9887975;30;20047;-76
2022/01/30 14:31:51;;;;;;;11.10;2.03;;;;;;;7.90;36.68;97938.16;9824417;30;20146;-75
2022/01/30 14:37:12;;;;;;;12.45;2.08;;;;;;;7.77;36.79;97919.06;9799699;30;20072;-75
2022/01/30 14:42:33;;;;;;;14.75;2.45;;;;;;;7.49;37.00;97921.00;9834682;30;20067;-75
2022/01/30 14:47:53;;;;;;;12.60;2.10;;;;;;;7.23;37.08;97936.19;9843714;30;20227;-78
2022/01/30 14:53:14;;;;;;;14.13;2.80;;;;;;;7.07;37.38;97945.97;9799876;30;20064;-76
2022/01/30 14:58:35;;;;;;;17.17;2.47;;;;;;;6.92;37.74;97946.81;9853036;29;20055;-76
2022/01/30 15:03:57;;;;;;;15.43;2.33;;;;;;;6.82;37.93;97959.81;9897093;29;20063;-76
2022/01/30 15:09:18;;;;;;;14.80;2.50;;;;;;;6.72;38.16;97962.47;9880878;29;20077;-76
2022/01/30 15:14:40;;;;;;;11.18;1.98;;;;;;;6.49;38.71;97956.31;9874078;30;20079;-76
2022/01/30 15:20:04;;;;;;;16.88;2.53;;;;;;;6.46;38.66;97969.25;9886662;30;20047;-76
2022/01/30 15:25:26;;;;;;;18.38;2.70;;;;;;;6.37;38.88;97964.31;9898947;30;20437;-76
2022/01/30 15:30:46;;;;;;;11.43;2.10;;;;;;;6.17;39.32;97984.72;9861305;30;20380;-77
2022/01/30 15:36:09;;;;;;;12.05;2.67;;;;;;;6.07;39.48;97992.13;9885641;30;20047;-76
2022/01/30 15:41:30;;;;;;;11.27;2.28;;;;;;;6.00;39.70;97997.16;9873286;30;20122;-79
2022/01/30 15:52:30;;;;;;;12.70;2.55;;;;;;;5.78;40.16;98019.31;9850618;30;20052;-79
2022/01/30 15:57:52;;;;;;;15.18;2.63;;;;;;;5.83;40.26;98029.47;9872984;30;20418;-79
2022/01/30 16:03:13;;;;;;;15.55;2.53;;;;;;;5.81;40.50;98052.19;9883204;30;20096;-79
2022/01/30 16:08:43;;;;;;;17.55;2.40;;;;;;;5.77;40.49;98043.50;9909755;29;20447;-77
2022/01/30 16:19:43;;;;;;;13.38;2.75;;;;;;;5.62;41.29;98058.13;9897464;30;20047;-80
2022/01/30 16:25:05;;;;;;;17.17;2.35;;;;;;;5.62;41.44;98060.16;9910212;29;20061;-80
2022/01/30 16:30:26;;;;;;;16.45;2.97;;;;;;;5.62;41.46;98079.53;9910130;29;20070;-79
2022/01/30 16:35:48;;;;;;;14.00;2.88;;;;;;;5.61;41.48;98078.78;9908590;30;20407;-79
2022/01/30 16:41:08;;;;;;;13.15;3.13;;;;;;;5.61;41.54;98083.59;9919505;29;20546;-81
2022/01/30 16:51:50;;;;;;;15.30;2.70;;;;;;;5.63;41.69;98075.47;9897424;29;20055;-82
2022/01/30 16:57:12;;;;;;;12.95;3.25;;;;;;;5.62;41.85;98085.06;9908072;30;20069;-77
2022/01/30 17:02:35;;;;;;;17.23;3.60;;;;;;;5.59;41.94;98064.00;9907721;29;20055;-82
2022/01/30 17:07:56;;;;;;;15.95;2.80;;;;;;;5.54;41.77;98073.25;9948492;30;20054;-84
2022/01/30 17:13:17;;;;;;;21.85;3.75;;;;;;;5.47;42.36;98080.97;9930832;29;20457;-81
2022/01/30 17:18:41;;;;;;;16.15;3.53;;;;;;;5.44;42.66;98081.34;9919738;30;20061;-79
2022/01/30 17:24:02;;;;;;;14.93;3.40;;;;;;;5.38;42.48;98102.94;9909236;30;20058;-83
2022/01/30 17:29:23;;;;;;;16.42;4.03;;;;;;;5.37;43.35;98104.97;9909964;30;20047;-80
2022/01/30 17:34:45;;;;;;;14.75;3.33;;;;;;;5.38;43.07;98125.81;9906069;30;20480;-79
2022/01/30 17:40:06;;;;;;;14.75;3.45;;;;;;;5.34;42.87;98121.94;10033042;24;20069;-78
2022/01/30 17:45:27;;;;;;;16.08;3.22;;;;;;;5.32;43.51;98119.75;9918632;29;20158;-78
2022/01/30 17:50:48;;;;;;;16.33;3.58;;;;;;;5.32;43.51;98119.75;9943910;29;20078;-79
2022/01/30 17:56:10;;;;;;;16.48;2.90;;;;;;;5.30;43.65;98116.03;9956305;29;20402;-78
2022/01/30 18:01:32;;;;;;;21.88;3.58;;;;;;;5.23;43.42;98125.06;9944200;29;20517;-80
2022/01/30 18:06:58;;;;;;;17.70;3.30;;;;;;;5.23;44.15;98123.03;9989940;29;20066;-81
2022/01/30 18:12:19;;;;;;;14.38;3.10;;;;;;;5.27;43.83;98117.88;9988959;29;20050;-80
2022/01/30 18:17:40;;;;;;;16.13;2.75;;;;;;;5.27;43.77;98122.66;9969381;29;20077;-79
2022/01/30 18:23:01;;;;;;;18.48;3.53;;;;;;;5.25;43.64;98103.84;9981775;29;20103;-80
2022/01/30 18:28:22;;;;;;;15.05;2.60;;;;;;;5.21;43.42;98114.56;9956297;29;20117;-78
2022/01/30 18:33:45;;;;;;;14.75;3.55;;;;;;;5.13;43.75;98088.88;9980649;29;20051;-78
2022/01/30 18:39:08;;;;;;;17.85;3.10;;;;;;;5.07;43.96;98107.66;9955715;29;20141;-77
2022/01/30 18:44:29;;;;;;;17.10;3.22;;;;;;;5.08;43.96;98106.38;9956347;29;20137;-77
2022/01/30 18:49:51;;;;;;;20.83;4.03;;;;;;;5.14;43.56;98104.19;9941636;29;20046;-78
2022/01/30 18:55:12;;;;;;;14.98;3.45;;;;;;;5.11;43.40;98117.06;9938843;29;20058;-81
2022/01/30 19:00:33;;;;;;;14.15;3.10;;;;;;;5.08;43.53;98122.97;9966047;29;20072;-80
2022/01/30 19:05:55;;;;;;;16.48;2.97;;;;;;;5.08;43.20;98125.75;9967080;29;20121;-79
2022/01/30 19:11:16;;;;;;;18.67;3.30;;;;;;;5.09;43.00;98133.50;9973717;29;20046;-79
2022/01/30 19:16:37;;;;;;;21.02;3.85;;;;;;;5.10;42.96;98139.75;9961436;29;20054;-78
2022/01/30 19:21:59;;;;;;;14.40;3.13;;;;;;;5.03;43.13;98135.69;9948567;29;20501;-79
2022/01/30 19:27:22;;;;;;;14.15;3.03;;;;;;;5.07;43.15;98149.16;9960420;29;20047;-78
2022/01/30 19:32:43;;;;;;;18.75;3.45;;;;;;;5.05;43.21;98146.22;9973225;29;20091;-80
2022/01/30 19:38:04;;;;;;;13.90;2.88;;;;;;;5.02;42.71;98139.00;9978191;29;20062;-78
2022/01/30 19:43:25;;;;;;;16.33;2.88;;;;;;;4.95;42.87;98121.09;10024172;29;20066;-78
2022/01/30 19:48:47;;;;;;;15.05;3.15;;;;;;;4.85;42.97;98107.03;10009847;29;20050;-78
2022/01/30 19:54:07;;;;;;;17.80;3.50;;;;;;;4.79;42.88;98092.63;10009733;29;20049;-78
2022/01/30 19:59:28;;;;;;;17.90;3.05;;;;;;;4.81;43.09;98064.41;9995773;29;20049;-78
2022/01/30 20:04:49;;;;;;;20.25;3.28;;;;;;;4.80;43.08;98074.75;9996430;29;20056;-78
2022/01/30 20:10:16;;;;;;;16.00;3.00;;;;;;;4.78;43.43;98074.56;10010392;29;20066;-78
2022/01/30 20:15:40;;;;;;;15.18;2.90;;;;;;;4.75;43.38;98083.22;10008905;29;20114;-78
2022/01/30 20:21:02;;;;;;;22.75;4.25;;;;;;;4.81;43.38;98081.00;10009550;29;20103;-78
2022/01/30 20:26:23;;;;;;;16.23;3.35;;;;;;;4.83;43.30;98084.00;10003687;29;20478;-78
2022/01/30 20:31:49;;;;;;;22.85;3.90;;;;;;;4.85;43.47;98087.69;9985240;29;20479;-78
2022/01/30 20:37:12;;;;;;;19.08;3.50;;;;;;;4.86;43.38;98097.47;9983407;29;20057;-78
2022/01/30 20:42:35;;;;;;;;;;;;;;;4.88;43.35;98088.59;9997022;29;20053;-78
2022/01/30 20:47:59;;;;;;;16.83;3.22;;;;;;;4.87;43.68;98078.84;10008640;29;20023;-78
2022/01/30 20:53:20;;;;;;;22.08;3.78;;;;;;;4.84;43.89;98077.91;9994821;29;20077;-77
2022/01/30 20:58:41;;;;;;;18.10;4.38;;;;;;;4.79;43.56;98072.53;9970208;29;20399;-78
2022/01/30 21:04:02;;;;;;;20.20;3.83;;;;;;;4.72;43.91;98076.75;9994887;29;20042;-78
2022/01/30 21:09:27;;;;;;;18.85;2.67;;;;;;;4.70;43.91;98075.81;9981405;29;20061;-78
2022/01/30 21:14:48;;;;;;;14.77;3.25;;;;;;;4.76;43.54;98062.56;9982391;29;20038;-78
2022/01/30 21:20:09;;;;;;;17.73;2.92;;;;;;;4.73;43.10;98072.72;9981709;29;20382;-78
2022/01/30 21:25:30;;;;;;;17.48;2.70;;;;;;;4.72;43.34;98062.91;9981800;29;20534;-80
2022/01/30 21:30:51;;;;;;;17.75;2.45;;;;;;;4.72;43.37;98073.97;9967563;29;20144;-79
2022/01/30 21:36:14;;;;;;;19.42;3.35;;;;;;;4.69;43.50;98075.06;9985085;29;20061;-80
2022/01/30 21:41:34;;;;;;;21.08;3.30;;;;;;;4.57;43.40;98077.44;9982893;29;20535;-79
2022/01/30 21:46:56;;;;;;;18.75;3.17;;;;;;;4.57;43.72;98071.16;9981418;29;20429;-78
2022/01/30 21:52:17;;;;;;;17.55;3.47;;;;;;;4.55;44.14;98065.44;10005226;29;20110;-78
2022/01/30 21:57:41;;;;;;;17.90;3.85;;;;;;;4.52;43.96;98042.38;9977843;29;20137;-78
2022/01/30 22:03:07;;;;;;;17.88;3.08;;;;;;;4.48;44.72;98038.50;9985418;29;20058;-78
2022/01/30 22:08:28;;;;;;;17.40;3.80;;;;;;;4.43;44.37;98014.50;9978212;29;20061;-78
2022/01/30 22:14:01;;;;;;;17.08;3.95;;;;;;;4.32;44.21;98019.06;9990376;29;20408;-78
2022/01/30 22:19:22;;;;;;;22.85;3.35;;;;;;;4.40;44.21;98010.06;9983055;29;20057;-78
2022/01/30 22:24:43;;;;;;;15.80;3.20;;;;;;;4.44;43.87;97991.88;9987139;29;20056;-78
2022/01/30 22:30:10;;;;;;;14.45;2.60;;;;;;;4.44;44.48;97980.03;10012215;29;20128;-78
2022/01/30 22:35:31;;;;;;;17.25;3.40;;;;;;;4.48;44.56;97975.66;10000952;29;20450;-78
2022/01/30 22:40:54;;;;;;;20.27;3.05;;;;;;;4.52;44.60;97984.31;9987849;29;20073;-78
2022/01/30 22:46:16;;;;;;;15.98;2.97;;;;;;;4.52;44.35;97969.75;9987445;29;20061;-78
2022/01/30 22:51:37;;;;;;;14.23;3.10;;;;;;;4.45;43.89;97973.25;9999613;29;20050;-78
2022/01/30 22:56:59;;;;;;;15.75;3.40;;;;;;;4.42;44.10;97972.31;10000062;29;20064;-78
2022/01/30 23:02:20;;;;;;;18.40;3.28;;;;;;;4.46;44.26;97961.66;9999357;29;20046;-78
2022/01/30 23:07:41;;;;;;;16.35;2.88;;;;;;;4.41;44.11;97942.47;9986215;29;20050;-78
2022/01/30 23:13:02;;;;;;;19.85;3.42;;;;;;;4.26;44.66;97921.06;9986229;29;20054;-78
2022/01/30 23:18:23;;;;;;;13.15;3.00;;;;;;;4.17;44.31;97929.84;9973498;29;20493;-78
2022/01/30 23:23:43;;;;;;;17.35;3.58;;;;;;;4.24;44.93;97918.06;9985503;29;20116;-78
2022/01/30 23:29:07;;;;;;;15.75;2.88;;;;;;;4.30;45.05;97916.63;9998237;29;20397;-78
2022/01/30 23:34:28;;;;;;;17.80;3.10;;;;;;;4.29;45.02;97912.38;9985307;29;20049;-78
2022/01/30 23:39:51;;;;;;;16.85;3.00;;;;;;;4.30;44.99;97894.53;9984687;29;20521;-78
2022/01/30 23:45:17;;;;;;;18.17;4.15;;;;;;;4.29;45.20;97904.09;9972866;29;20046;-78
2022/01/30 23:50:39;;;;;;;17.30;3.58;;;;;;;4.32;45.32;97885.69;9972884;29;20481;-78
2022/01/30 23:56:01;;;;;;;17.98;4.53;;;;;;;4.31;44.89;97884.94;9984726;29;20050;-78
